sensor_id;sensor_type;location;lat;lon;timestamp;pressure;altitude;pressure_sealevel;temperature;humidity
71716;BME280;59568;52.128;5.434;2024-02-04T00:00:19;102519.19;;;9.32;100.00
71716;BME280;59568;52.128;5.434;2024-02-04T00:02:46;102519.19;;;9.32;100.00
71716;BME280;59568;52.128;5.434;2024-02-04T00:05:13;102508.19;;;9.30;100.00
71716;BME280;59568;52.128;5.434;2024-02-04T00:07:40;102510.03;;;9.30;100.00
71716;BME280;59568;52.128;5.434;2024-02-04T00:10:07;102511.59;;;9.31;100.00
71716;BME280;59568;52.128;5.434;2024-02-04T00:12:34;102523.84;;;9.30;100.00
71716;BME280;59568;52.128;5.434;2024-02-04T00:15:01;102525.91;;;9.28;100.00
71716;BME280;59568;52.128;5.434;2024-02-04T00:17:31;102522.50;;;9.28;100.00
71716;BME280;59568;52.128;5.434;2024-02-04T00:20:00;102496.66;;;9.26;100.00
71716;BME280;59568;52.128;5.434;2024-02-04T00:22:27;102507.88;;;9.27;100.00
71716;BME280;59568;52.128;5.434;2024-02-04T00:24:54;102502.88;;;9.25;100.00
71716;BME280;59568;52.128;5.434;2024-02-04T00:27:22;102505.75;;;9.24;100.00
71716;BME280;59568;52.128;5.434;2024-02-04T00:29:49;102516.97;;;9.24;100.00
71716;BME280;59568;52.128;5.434;2024-02-04T00:32:16;102513.56;;;9.24;100.00
71716;BME280;59568;52.128;5.434;2024-02-04T00:34:43;102511.19;;;9.22;100.00
71716;BME280;59568;52.128;5.434;2024-02-04T00:37:10;102516.63;;;9.20;100.00
71716;BME280;59568;52.128;5.434;2024-02-04T00:39:37;102524.69;;;9.19;100.00
71716;BME280;59568;52.128;5.434;2024-02-04T00:42:04;102516.06;;;9.18;100.00
71716;BME280;59568;52.128;5.434;2024-02-04T00:44:31;102506.66;;;9.17;100.00
71716;BME280;59568;52.128;5.434;2024-02-04T00:46:58;102500.88;;;9.15;100.00
71716;BME280;59568;52.128;5.434;2024-02-04T00:49:25;102500.09;;;9.15;100.00
71716;BME280;59568;52.128;5.434;2024-02-04T00:51:53;102500.09;;;9.15;100.00
71716;BME280;59568;52.128;5.434;2024-02-04T00:54:20;102495.09;;;9.13;100.00
71716;BME280;59568;52.128;5.434;2024-02-04T00:56:47;102488.31;;;9.12;100.00
71716;BME280;59568;52.128;5.434;2024-02-04T00:59:15;102490.94;;;9.12;100.00
71716;BME280;59568;52.128;5.434;2024-02-04T01:01:41;102490.38;;;9.10;100.00
71716;BME280;59568;52.128;5.434;2024-02-04T01:04:09;102489.59;;;9.10;100.00
71716;BME280;59568;52.128;5.434;2024-02-04T01:06:37;102495.03;;;9.08;100.00
71716;BME280;59568;52.128;5.434;2024-02-04T01:09:22;102483.00;;;9.07;100.00
71716;BME280;59568;52.128;5.434;2024-02-04T01:11:49;102490.28;;;9.05;100.00
71716;BME280;59568;52.128;5.434;2024-02-04T01:14:15;102492.88;;;9.05;100.00
71716;BME280;59568;52.128;5.434;2024-02-04T01:16:42;102489.50;;;9.05;100.00
71716;BME280;59568;52.128;5.434;2024-02-04T01:19:10;102484.50;;;9.03;100.00
71716;BME280;59568;52.128;5.434;2024-02-04T01:21:37;102469.91;;;9.02;100.00
71716;BME280;59568;52.128;5.434;2024-02-04T01:24:04;102463.09;;;9.01;100.00
71716;BME280;59568;52.128;5.434;2024-02-04T01:26:31;102475.34;;;9.00;100.00
71716;BME280;59568;52.128;5.434;2024-02-04T01:28:57;102472.72;;;9.00;100.00
71716;BME280;59568;52.128;5.434;2024-02-04T01:31:24;102473.50;;;9.01;100.00
71716;BME280;59568;52.128;5.434;2024-02-04T01:33:51;102490.97;;;9.00;100.00
71716;BME280;59568;52.128;5.434;2024-02-04T01:36:18;102491.47;;;8.97;100.00
71716;BME280;59568;52.128;5.434;2024-02-04T01:38:45;102478.16;;;8.99;100.00
71716;BME280;59568;52.128;5.434;2024-02-04T01:41:12;102483.88;;;8.96;100.00
71716;BME280;59568;52.128;5.434;2024-02-04T01:43:39;102498.63;;;8.90;100.00
71716;BME280;59568;52.128;5.434;2024-02-04T01:46:06;102492.28;;;8.86;100.00
71716;BME280;59568;52.128;5.434;2024-02-04T01:48:35;102487.31;;;8.85;100.00
71716;BME280;59568;52.128;5.434;2024-02-04T01:51:03;102498.50;;;8.85;100.00
71716;BME280;59568;52.128;5.434;2024-02-04T01:53:32;102486.75;;;8.83;100.00
71716;BME280;59568;52.128;5.434;2024-02-04T01:56:00;102487.78;;;8.82;100.00
71716;BME280;59568;52.128;5.434;2024-02-04T01:58:28;102484.38;;;8.81;100.00
71716;BME280;59568;52.128;5.434;2024-02-04T02:00:56;102489.03;;;8.79;100.00
71716;BME280;59568;52.128;5.434;2024-02-04T02:03:23;102496.06;;;8.78;100.00
71716;BME280;59568;52.128;5.434;2024-02-04T02:05:51;102490.84;;;8.78;100.00
71716;BME280;59568;52.128;5.434;2024-02-04T02:08:19;102493.66;;;8.77;100.00
71716;BME280;59568;52.128;5.434;2024-02-04T02:10:47;102492.88;;;8.76;100.00
71716;BME280;59568;52.128;5.434;2024-02-04T02:13:19;102489.50;;;8.76;100.00
71716;BME280;59568;52.128;5.434;2024-02-04T02:15:58;102493.13;;;8.75;100.00
71716;BME280;59568;52.128;5.434;2024-02-04T02:21:47;102499.38;;;8.74;100.00
71716;BME280;59568;52.128;5.434;2024-02-04T02:26:50;102493.81;;;8.70;100.00
71716;BME280;59568;52.128;5.434;2024-02-04T02:29:17;102481.00;;;8.69;100.00
71716;BME280;59568;52.128;5.434;2024-02-04T02:31:45;102473.44;;;8.67;100.00
71716;BME280;59568;52.128;5.434;2024-02-04T02:34:15;102472.06;;;8.65;100.00
71716;BME280;59568;52.128;5.434;2024-02-04T02:39:57;102475.28;;;8.55;100.00
71716;BME280;59568;52.128;5.434;2024-02-04T02:42:25;102469.28;;;8.54;100.00
71716;BME280;59568;52.128;5.434;2024-02-04T02:44:56;102473.69;;;8.54;100.00
71716;BME280;59568;52.128;5.434;2024-02-04T02:47:24;102468.16;;;8.50;100.00
71716;BME280;59568;52.128;5.434;2024-02-04T02:49:52;102472.56;;;8.50;100.00
71716;BME280;59568;52.128;5.434;2024-02-04T02:52:20;102479.84;;;8.48;100.00
71716;BME280;59568;52.128;5.434;2024-02-04T02:54:47;102477.78;;;8.50;100.00
71716;BME280;59568;52.128;5.434;2024-02-04T02:57:14;102479.84;;;8.48;100.00
71716;BME280;59568;52.128;5.434;2024-02-04T02:59:41;102472.81;;;8.48;100.00
71716;BME280;59568;52.128;5.434;2024-02-04T03:02:08;102480.63;;;8.48;100.00
71716;BME280;59568;52.128;5.434;2024-02-04T03:04:36;102473.84;;;8.47;100.00
71716;BME280;59568;52.128;5.434;2024-02-04T03:07:03;102469.41;;;8.48;100.00
71716;BME280;59568;52.128;5.434;2024-02-04T03:09:30;102472.56;;;8.50;100.00
71716;BME280;59568;52.128;5.434;2024-02-04T03:11:57;102472.56;;;8.50;100.00
71716;BME280;59568;52.128;5.434;2024-02-04T03:14:24;102468.38;;;8.49;100.00
71716;BME280;59568;52.128;5.434;2024-02-04T03:16:51;102469.97;;;8.50;100.00
71716;BME280;59568;52.128;5.434;2024-02-04T03:19:20;102472.56;;;8.50;100.00
71716;BME280;59568;52.128;5.434;2024-02-04T03:21:48;102476.75;;;8.51;100.00
71716;BME280;59568;52.128;5.434;2024-02-04T03:24:15;102475.41;;;8.48;100.00
71716;BME280;59568;52.128;5.434;2024-02-04T03:26:42;102474.06;;;8.46;100.00
71716;BME280;59568;52.128;5.434;2024-02-04T03:29:09;102465.13;;;8.42;100.00
71716;BME280;59568;52.128;5.434;2024-02-04T03:31:36;102477.38;;;8.41;100.00
71716;BME280;59568;52.128;5.434;2024-02-04T03:34:03;102470.53;;;8.40;100.00
71716;BME280;59568;52.128;5.434;2024-02-04T03:36:30;102474.94;;;8.39;100.00
71716;BME280;59568;52.128;5.434;2024-02-04T03:38:57;102456.59;;;8.34;100.00
71716;BME280;59568;52.128;5.434;2024-02-04T03:41:24;102466.47;;;8.32;100.00
71716;BME280;59568;52.128;5.434;2024-02-04T03:43:51;102465.13;;;8.30;100.00
71716;BME280;59568;52.128;5.434;2024-02-04T03:46:19;102472.25;;;8.23;100.00
71716;BME280;59568;52.128;5.434;2024-02-04T03:48:46;102471.94;;;8.19;100.00
71716;BME280;59568;52.128;5.434;2024-02-04T03:51:17;102473.16;;;8.16;100.00
71716;BME280;59568;52.128;5.434;2024-02-04T03:53:45;102480.41;;;8.14;100.00
71716;BME280;59568;52.128;5.434;2024-02-04T03:56:12;102484.28;;;8.12;100.00
71716;BME280;59568;52.128;5.434;2024-02-04T03:58:39;102488.91;;;8.10;100.00
71716;BME280;59568;52.128;5.434;2024-02-04T04:01:10;102485.75;;;8.08;100.00
71716;BME280;59568;52.128;5.434;2024-02-04T04:03:41;102480.97;;;8.05;100.00
71716;BME280;59568;52.128;5.434;2024-02-04T04:06:09;102469.00;;;8.04;100.00
71716;BME280;59568;52.128;5.434;2024-02-04T04:08:37;102483.50;;;7.99;100.00
71716;BME280;59568;52.128;5.434;2024-02-04T04:11:06;102485.31;;;7.99;100.00
71716;BME280;59568;52.128;5.434;2024-02-04T04:13:34;102476.94;;;7.97;100.00
71716;BME280;59568;52.128;5.434;2024-02-04T04:16:02;102463.09;;;7.96;100.00
71716;BME280;59568;52.128;5.434;2024-02-04T04:18:30;102457.91;;;7.96;100.00
71716;BME280;59568;52.128;5.434;2024-02-04T04:20:57;102455.28;;;7.96;100.00
71716;BME280;59568;52.128;5.434;2024-02-04T04:23:24;102455.28;;;7.96;100.00
71716;BME280;59568;52.128;5.434;2024-02-04T04:25:51;102453.50;;;7.97;100.00
71716;BME280;59568;52.128;5.434;2024-02-04T04:28:18;102459.50;;;7.97;100.00
71716;BME280;59568;52.128;5.434;2024-02-04T04:30:45;102459.50;;;7.97;100.00
71716;BME280;59568;52.128;5.434;2024-02-04T04:33:12;102457.13;;;7.96;100.00
71716;BME280;59568;52.128;5.434;2024-02-04T04:35:40;102447.47;;;7.96;100.00
71716;BME280;59568;52.128;5.434;2024-02-04T04:38:07;102456.31;;;7.95;100.00
71716;BME280;59568;52.128;5.434;2024-02-04T04:40:33;102455.06;;;7.98;100.00
71716;BME280;59568;52.128;5.434;2024-02-04T04:43:00;102447.47;;;7.96;100.00
71716;BME280;59568;52.128;5.434;2024-02-04T04:45:28;102447.75;;;7.95;100.00
71716;BME280;59568;52.128;5.434;2024-02-04T04:47:54;102444.88;;;7.96;100.00
71716;BME280;59568;52.128;5.434;2024-02-04T04:50:22;102440.50;;;7.97;100.00
71716;BME280;59568;52.128;5.434;2024-02-04T04:52:49;102432.91;;;7.95;100.00
71716;BME280;59568;52.128;5.434;2024-02-04T04:55:16;102432.91;;;7.95;100.00
71716;BME280;59568;52.128;5.434;2024-02-04T04:57:43;102431.09;;;7.96;100.00
71716;BME280;59568;52.128;5.434;2024-02-04T05:00:10;102419.88;;;7.95;100.00
71716;BME280;59568;52.128;5.434;2024-02-04T05:02:42;102422.94;;;7.92;100.00
71716;BME280;59568;52.128;5.434;2024-02-04T05:05:13;102422.38;;;7.90;100.00
71716;BME280;59568;52.128;5.434;2024-02-04T05:07:40;102414.56;;;7.90;100.00
71716;BME280;59568;52.128;5.434;2024-02-04T05:10:08;102414.00;;;7.88;100.00
71716;BME280;59568;52.128;5.434;2024-02-04T05:12:36;102419.19;;;7.88;100.00
71716;BME280;59568;52.128;5.434;2024-02-04T05:15:04;102418.19;;;7.89;100.00
71716;BME280;59568;52.128;5.434;2024-02-04T05:17:31;102421.81;;;7.88;100.00
71716;BME280;59568;52.128;5.434;2024-02-04T05:20:00;102420.47;;;7.86;100.00
71716;BME280;59568;52.128;5.434;2024-02-04T05:22:27;102415.47;;;7.84;100.00
71716;BME280;59568;52.128;5.434;2024-02-04T05:24:54;102418.06;;;7.84;100.00
71716;BME280;59568;52.128;5.434;2024-02-04T05:27:21;102417.28;;;7.84;100.00
71716;BME280;59568;52.128;5.434;2024-02-04T05:29:48;102419.09;;;7.83;100.00
71716;BME280;59568;52.128;5.434;2024-02-04T05:32:15;102424.53;;;7.82;100.00
71716;BME280;59568;52.128;5.434;2024-02-04T05:34:41;102416.25;;;7.85;100.00
71716;BME280;59568;52.128;5.434;2024-02-04T05:37:09;102420.47;;;7.86;100.00
71716;BME280;59568;52.128;5.434;2024-02-04T05:39:36;102412.44;;;7.87;100.00
71716;BME280;59568;52.128;5.434;2024-02-04T05:42:03;102405.63;;;7.86;100.00
71716;BME280;59568;52.128;5.434;2024-02-04T05:44:30;102399.41;;;7.87;100.00
71716;BME280;59568;52.128;5.434;2024-02-04T05:46:56;102397.81;;;7.86;100.00
71716;BME280;59568;52.128;5.434;2024-02-04T05:49:23;102390.00;;;7.86;100.00
71716;BME280;59568;52.128;5.434;2024-02-04T05:51:51;102401.19;;;7.87;100.00
71716;BME280;59568;52.128;5.434;2024-02-04T05:54:17;102403.03;;;7.86;100.00
71716;BME280;59568;52.128;5.434;2024-02-04T05:56:44;102407.22;;;7.87;100.00
71716;BME280;59568;52.128;5.434;2024-02-04T05:59:11;102406.41;;;7.87;100.00
71716;BME280;59568;52.128;5.434;2024-02-04T06:01:38;102405.63;;;7.86;100.00
71716;BME280;59568;52.128;5.434;2024-02-04T06:04:05;102413.66;;;7.85;100.00
71716;BME280;59568;52.128;5.434;2024-02-04T06:06:32;102397.25;;;7.84;100.00
71716;BME280;59568;52.128;5.434;2024-02-04T06:08:59;102383.47;;;7.84;100.00
71716;BME280;59568;52.128;5.434;2024-02-04T06:11:26;102372.47;;;7.82;100.00
71716;BME280;59568;52.128;5.434;2024-02-04T06:13:53;102372.47;;;7.82;100.00
71716;BME280;59568;52.128;5.434;2024-02-04T06:16:20;102381.28;;;7.80;100.00
71716;BME280;59568;52.128;5.434;2024-02-04T06:18:47;102372.16;;;7.78;100.00
71716;BME280;59568;52.128;5.434;2024-02-04T06:21:14;102365.69;;;7.80;100.00
71716;BME280;59568;52.128;5.434;2024-02-04T06:23:41;102367.28;;;7.82;100.00
71716;BME280;59568;52.128;5.434;2024-02-04T06:26:08;102369.88;;;7.82;100.00
71716;BME280;59568;52.128;5.434;2024-02-04T06:28:35;102354.03;;;7.83;100.00
71716;BME280;59568;52.128;5.434;2024-02-04T06:31:02;102363.66;;;7.83;100.00
71716;BME280;59568;52.128;5.434;2024-02-04T06:33:29;102357.66;;;7.82;100.00
71716;BME280;59568;52.128;5.434;2024-02-04T06:35:56;102355.63;;;7.84;100.00
71716;BME280;59568;52.128;5.434;2024-02-04T06:38:23;102349.16;;;7.87;100.00
71716;BME280;59568;52.128;5.434;2024-02-04T06:40:49;102347.38;;;7.87;100.00
71716;BME280;59568;52.128;5.434;2024-02-04T06:43:16;102361.50;;;7.91;100.00
71716;BME280;59568;52.128;5.434;2024-02-04T06:45:43;102363.06;;;7.92;100.00
71716;BME280;59568;52.128;5.434;2024-02-04T06:48:11;102355.38;;;7.97;100.00
71716;BME280;59568;52.128;5.434;2024-02-04T06:50:38;102342.91;;;7.99;100.00
71716;BME280;59568;52.128;5.434;2024-02-04T06:53:05;102357.28;;;8.02;100.00
71716;BME280;59568;52.128;5.434;2024-02-04T06:55:32;102355.56;;;8.08;100.00
71716;BME280;59568;52.128;5.434;2024-02-04T06:57:59;102357.13;;;8.09;100.00
71716;BME280;59568;52.128;5.434;2024-02-04T07:00:26;102362.34;;;8.09;100.00
71716;BME280;59568;52.128;5.434;2024-02-04T07:02:53;102358.97;;;8.08;100.00
71716;BME280;59568;52.128;5.434;2024-02-04T07:05:20;102345.94;;;8.08;100.00
71716;BME280;59568;52.128;5.434;2024-02-04T07:07:49;102365.06;;;8.14;100.00
71716;BME280;59568;52.128;5.434;2024-02-04T07:10:16;102350.56;;;8.18;100.00
71716;BME280;59568;52.128;5.434;2024-02-04T07:12:44;102344.34;;;8.19;100.00
71716;BME280;59568;52.128;5.434;2024-02-04T07:15:11;102338.44;;;8.24;100.00
71716;BME280;59568;52.128;5.434;2024-02-04T07:17:38;102343.63;;;8.24;100.00
71716;BME280;59568;52.128;5.434;2024-02-04T07:20:05;102330.06;;;8.22;100.00
71716;BME280;59568;52.128;5.434;2024-02-04T07:22:32;102327.69;;;8.20;100.00
71716;BME280;59568;52.128;5.434;2024-02-04T07:25:04;102336.06;;;8.22;100.00
71716;BME280;59568;52.128;5.434;2024-02-04T07:27:31;102333.78;;;8.26;100.00
71716;BME280;59568;52.128;5.434;2024-02-04T07:29:58;102335.13;;;8.28;100.00
71716;BME280;59568;52.128;5.434;2024-02-04T07:32:25;102336.47;;;8.31;100.00
71716;BME280;59568;52.128;5.434;2024-02-04T07:34:52;102337.84;;;8.33;100.00
71716;BME280;59568;52.128;5.434;2024-02-04T07:37:19;102344.16;;;8.37;100.00
71716;BME280;59568;52.128;5.434;2024-02-04T07:39:46;102354.09;;;8.40;100.00
71716;BME280;59568;52.128;5.434;2024-02-04T07:42:13;102354.69;;;8.43;100.00
71716;BME280;59568;52.128;5.434;2024-02-04T07:44:40;102344.81;;;8.45;100.00
71716;BME280;59568;52.128;5.434;2024-02-04T07:47:06;102349.56;;;8.48;100.00
71716;BME280;59568;52.128;5.434;2024-02-04T07:49:33;102357.94;;;8.50;100.00
71716;BME280;59568;52.128;5.434;2024-02-04T07:52:01;102369.47;;;8.54;100.00
71716;BME280;59568;52.128;5.434;2024-02-04T07:54:28;102353.84;;;8.54;100.00
71716;BME280;59568;52.128;5.434;2024-02-04T07:56:54;102349.19;;;8.56;100.00
71716;BME280;59568;52.128;5.434;2024-02-04T07:59:21;102340.34;;;8.57;100.00
71716;BME280;59568;52.128;5.434;2024-02-04T08:01:48;102335.69;;;8.59;100.00
71716;BME280;59568;52.128;5.434;2024-02-04T08:04:15;102327.09;;;8.58;100.00
71716;BME280;59568;52.128;5.434;2024-02-04T08:06:43;102332.53;;;8.57;100.00
71716;BME280;59568;52.128;5.434;2024-02-04T08:09:10;102333.34;;;8.57;100.00
71716;BME280;59568;52.128;5.434;2024-02-04T08:11:38;102339.56;;;8.56;100.00
71716;BME280;59568;52.128;5.434;2024-02-04T08:14:05;102338.78;;;8.56;100.00
71716;BME280;59568;52.128;5.434;2024-02-04T08:16:32;102336.94;;;8.56;100.00
71716;BME280;59568;52.128;5.434;2024-02-04T08:18:59;102336.16;;;8.56;100.00
71716;BME280;59568;52.128;5.434;2024-02-04T08:21:26;102333.34;;;8.57;100.00
71716;BME280;59568;52.128;5.434;2024-02-04T08:23:53;102340.91;;;8.59;100.00
71716;BME280;59568;52.128;5.434;2024-02-04T08:26:20;102327.88;;;8.59;100.00
71716;BME280;59568;52.128;5.434;2024-02-04T08:28:47;102329.47;;;8.60;100.00
71716;BME280;59568;52.128;5.434;2024-02-04T08:31:14;102333.63;;;8.61;100.00
71716;BME280;59568;52.128;5.434;2024-02-04T08:33:41;102338.84;;;8.61;100.00
71716;BME280;59568;52.128;5.434;2024-02-04T08:36:08;102336.00;;;8.63;100.00
71716;BME280;59568;52.128;5.434;2024-02-04T08:38:37;102323.75;;;8.63;100.00
71716;BME280;59568;52.128;5.434;2024-02-04T08:41:04;102324.31;;;8.65;100.00
71716;BME280;59568;52.128;5.434;2024-02-04T08:43:31;102325.91;;;8.66;100.00
71716;BME280;59568;52.128;5.434;2024-02-04T08:45:58;102313.91;;;8.65;100.00
71716;BME280;59568;52.128;5.434;2024-02-04T08:48:36;102324.31;;;8.65;100.00
71716;BME280;59568;52.128;5.434;2024-02-04T08:51:04;102317.78;;;8.63;100.00
71716;BME280;59568;52.128;5.434;2024-02-04T08:53:31;102316.22;;;8.62;100.00
71716;BME280;59568;52.128;5.434;2024-02-04T08:55:58;102303.97;;;8.62;100.00
71716;BME280;59568;52.128;5.434;2024-02-04T08:58:25;102304.28;;;8.66;100.00
71716;BME280;59568;52.128;5.434;2024-02-04T09:00:52;102313.66;;;8.67;100.00
71716;BME280;59568;52.128;5.434;2024-02-04T09:03:19;102305.41;;;8.70;100.00
71716;BME280;59568;52.128;5.434;2024-02-04T09:05:45;102300.97;;;8.70;100.00
71716;BME280;59568;52.128;5.434;2024-02-04T09:08:12;102299.69;;;8.73;100.00
71716;BME280;59568;52.128;5.434;2024-02-04T09:10:40;102307.28;;;8.74;100.00
71716;BME280;59568;52.128;5.434;2024-02-04T09:13:07;102299.22;;;8.76;100.00
71716;BME280;59568;52.128;5.434;2024-02-04T09:15:35;102303.19;;;8.78;100.00
71716;BME280;59568;52.128;5.434;2024-02-04T09:18:02;102300.66;;;8.84;100.00
71716;BME280;59568;52.128;5.434;2024-02-04T09:20:29;102297.56;;;8.87;100.00
71716;BME280;59568;52.128;5.434;2024-02-04T09:22:56;102307.28;;;8.91;100.00
71716;BME280;59568;52.128;5.434;2024-02-04T09:25:24;102309.19;;;8.96;100.00
71716;BME280;59568;52.128;5.434;2024-02-04T09:27:52;102313.91;;;8.99;100.00
71716;BME280;59568;52.128;5.434;2024-02-04T09:30:19;102323.38;;;9.05;100.00
71716;BME280;59568;52.128;5.434;2024-02-04T09:32:46;102332.56;;;9.08;100.00
71716;BME280;59568;52.128;5.434;2024-02-04T09:35:14;102323.00;;;9.13;100.00
71716;BME280;59568;52.128;5.434;2024-02-04T09:37:42;102320.47;;;9.18;100.00
71716;BME280;59568;52.128;5.434;2024-02-04T09:40:10;102324.94;;;9.23;100.00
71716;BME280;59568;52.128;5.434;2024-02-04T09:42:38;102323.72;;;9.26;100.00
71716;BME280;59568;52.128;5.434;2024-02-04T09:45:05;102313.34;;;9.31;100.00
71716;BME280;59568;52.128;5.434;2024-02-04T09:47:34;102311.50;;;9.31;100.00
71716;BME280;59568;52.128;5.434;2024-02-04T09:50:01;102311.81;;;9.35;100.00
71716;BME280;59568;52.128;5.434;2024-02-04T09:52:29;102306.13;;;9.38;100.00
71716;BME280;59568;52.128;5.434;2024-02-04T09:55:02;102313.47;;;9.41;100.00
71716;BME280;59568;52.128;5.434;2024-02-04T09:57:34;102309.84;;;9.42;100.00
71716;BME280;59568;52.128;5.434;2024-02-04T10:00:05;102309.09;;;9.47;100.00
71716;BME280;59568;52.128;5.434;2024-02-04T10:02:35;102319.88;;;9.50;100.00
71716;BME280;59568;52.128;5.434;2024-02-04T10:05:03;102308.94;;;9.53;100.00
71716;BME280;59568;52.128;5.434;2024-02-04T10:07:31;102313.69;;;9.56;100.00
71716;BME280;59568;52.128;5.434;2024-02-04T10:09:58;102312.41;;;9.59;100.00
71716;BME280;59568;52.128;5.434;2024-02-04T10:12:25;102324.44;;;9.60;100.00
71716;BME280;59568;52.128;5.434;2024-02-04T10:14:52;102321.56;;;9.62;100.00
71716;BME280;59568;52.128;5.434;2024-02-04T10:17:19;102314.53;;;9.62;100.00
71716;BME280;59568;52.128;5.434;2024-02-04T10:19:49;102314.53;;;9.62;100.00
71716;BME280;59568;52.128;5.434;2024-02-04T10:22:17;102309.31;;;9.62;100.00
71716;BME280;59568;52.128;5.434;2024-02-04T10:24:44;102315.09;;;9.64;100.00
71716;BME280;59568;52.128;5.434;2024-02-04T10:27:15;102311.66;;;9.64;100.00
71716;BME280;59568;52.128;5.434;2024-02-04T10:29:56;102313.00;;;9.66;100.00
71716;BME280;59568;52.128;5.434;2024-02-04T10:32:23;102324.25;;;9.67;100.00
71716;BME280;59568;52.128;5.434;2024-02-04T10:34:51;102319.56;;;9.69;100.00
71716;BME280;59568;52.128;5.434;2024-02-04T10:37:19;102311.25;;;9.72;100.00
71716;BME280;59568;52.128;5.434;2024-02-04T10:39:46;102321.22;;;9.75;100.00
71716;BME280;59568;52.128;5.434;2024-02-04T10:42:14;102311.81;;;9.74;100.00
71716;BME280;59568;52.128;5.434;2024-02-04T10:44:44;102317.03;;;9.74;100.00
71716;BME280;59568;52.128;5.434;2024-02-04T10:47:16;102330.88;;;9.74;100.00
71716;BME280;59568;52.128;5.434;2024-02-04T10:49:51;102323.81;;;9.75;100.00
71716;BME280;59568;52.128;5.434;2024-02-04T10:52:20;102322.28;;;9.79;100.00
71716;BME280;59568;52.128;5.434;2024-02-04T10:54:49;102327.53;;;9.79;100.00
71716;BME280;59568;52.128;5.434;2024-02-04T10:57:20;102319.44;;;9.80;100.00
71716;BME280;59568;52.128;5.434;2024-02-04T10:59:52;102326.53;;;9.85;100.00
71716;BME280;59568;52.128;5.434;2024-02-04T11:02:20;102326.06;;;9.88;100.00
71716;BME280;59568;52.128;5.434;2024-02-04T11:04:50;102317.50;;;9.93;100.00
71716;BME280;59568;52.128;5.434;2024-02-04T11:07:19;102328.25;;;9.96;100.00
71716;BME280;59568;52.128;5.434;2024-02-04T11:09:48;102326.19;;;9.98;100.00
71716;BME280;59568;52.128;5.434;2024-02-04T11:12:18;102324.34;;;9.99;100.00
71716;BME280;59568;52.128;5.434;2024-02-04T11:14:49;102331.88;;;9.95;100.00
71716;BME280;59568;52.128;5.434;2024-02-04T11:27:59;102325.56;;;9.91;100.00
71716;BME280;59568;52.128;5.434;2024-02-04T11:30:27;102320.59;;;9.90;100.00
71716;BME280;59568;52.128;5.434;2024-02-04T11:32:54;102318.78;;;9.90;100.00
71716;BME280;59568;52.128;5.434;2024-02-04T11:35:21;102309.91;;;9.91;100.00
71716;BME280;59568;52.128;5.434;2024-02-04T11:37:50;102304.69;;;9.91;100.00
71716;BME280;59568;52.128;5.434;2024-02-04T11:40:17;102299.47;;;9.91;100.00
71716;BME280;59568;52.128;5.434;2024-02-04T11:42:46;102279.66;;;9.95;100.00
71716;BME280;59568;52.128;5.434;2024-02-04T11:45:13;102279.97;;;9.99;100.00
71716;BME280;59568;52.128;5.434;2024-02-04T11:47:41;102284.44;;;10.04;100.00
71716;BME280;59568;52.128;5.434;2024-02-04T11:50:09;102280.81;;;10.05;100.00
71716;BME280;59568;52.128;5.434;2024-02-04T11:52:39;102282.38;;;10.06;100.00
71716;BME280;59568;52.128;5.434;2024-02-04T11:55:13;102275.28;;;10.01;100.00
71716;BME280;59568;52.128;5.434;2024-02-04T11:57:40;102279.19;;;9.98;100.00
71716;BME280;59568;52.128;5.434;2024-02-04T12:00:08;102272.38;;;9.97;100.00
71716;BME280;59568;52.128;5.434;2024-02-04T12:02:37;102282.81;;;9.97;100.00
71716;BME280;59568;52.128;5.434;2024-02-04T12:05:06;102283.34;;;9.99;100.00
71716;BME280;59568;52.128;5.434;2024-02-04T12:07:33;102278.13;;;9.99;100.00
71716;BME280;59568;52.128;5.434;2024-02-04T12:10:01;102267.69;;;9.99;100.00
71716;BME280;59568;52.128;5.434;2024-02-04T12:12:28;102262.47;;;9.99;100.00
71716;BME280;59568;52.128;5.434;2024-02-04T12:14:57;102259.31;;;9.97;100.00
71716;BME280;59568;52.128;5.434;2024-02-04T12:17:24;102252.53;;;9.96;100.00
71716;BME280;59568;52.128;5.434;2024-02-04T12:19:52;102255.13;;;9.96;100.00
71716;BME280;59568;52.128;5.434;2024-02-04T12:22:21;102264.06;;;10.00;100.00
71716;BME280;59568;52.128;5.434;2024-02-04T12:24:49;102256.53;;;10.04;100.00
71716;BME280;59568;52.128;5.434;2024-02-04T12:27:16;102253.91;;;10.04;100.00
71716;BME280;59568;52.128;5.434;2024-02-04T12:29:44;102248.16;;;10.02;100.00
71716;BME280;59568;52.128;5.434;2024-02-04T12:32:13;102244.47;;;10.03;100.00
71716;BME280;59568;52.128;5.434;2024-02-04T12:34:40;102244.00;;;10.06;100.00
71716;BME280;59568;52.128;5.434;2024-02-04T12:37:10;102240.88;;;10.09;100.00
71716;BME280;59568;52.128;5.434;2024-02-04T12:39:37;102241.44;;;10.11;100.00
71716;BME280;59568;52.128;5.434;2024-02-04T12:42:04;102251.09;;;10.11;100.00
71716;BME280;59568;52.128;5.434;2024-02-04T12:44:32;102256.78;;;10.08;100.00
71716;BME280;59568;52.128;5.434;2024-02-04T12:46:59;102258.63;;;10.07;100.00
71716;BME280;59568;52.128;5.434;2024-02-04T12:49:26;102258.88;;;10.06;100.00
71716;BME280;59568;52.128;5.434;2024-02-04T12:52:04;102252.09;;;10.05;100.00
71716;BME280;59568;52.128;5.434;2024-02-04T12:54:43;102253.63;;;10.06;100.00
71716;BME280;59568;52.128;5.434;2024-02-04T12:57:22;102243.75;;;10.08;100.00
71716;BME280;59568;52.128;5.434;2024-02-04T12:59:52;102231.50;;;10.08;100.00
71716;BME280;59568;52.128;5.434;2024-02-04T13:02:19;102223.13;;;10.06;100.00
71716;BME280;59568;52.128;5.434;2024-02-04T13:04:48;102215.53;;;10.05;100.00
71716;BME280;59568;52.128;5.434;2024-02-04T13:07:15;102216.81;;;10.02;100.00
71716;BME280;59568;52.128;5.434;2024-02-04T13:09:45;102218.88;;;10.00;100.00
71716;BME280;59568;52.128;5.434;2024-02-04T13:12:14;102220.19;;;10.03;100.00